createdAt,value
2022-10-06T00:00:05.219Z,3.97
2022-10-06T00:02:35.605Z,4.22
2022-10-06T00:05:03.607Z,3.83
2022-10-06T00:07:33.773Z,3.50
2022-10-06T00:10:01.523Z,3.40
2022-10-06T00:12:31.523Z,4.30
2022-10-06T00:15:00.664Z,3.58
2022-10-06T00:17:28.456Z,3.20
2022-10-06T00:19:56.283Z,3.10
2022-10-06T00:22:24.032Z,3.88
2022-10-06T00:24:51.776Z,3.40
2022-10-06T00:27:19.980Z,3.80
2022-10-06T00:29:47.677Z,3.80
2022-10-06T00:32:16.953Z,3.20
2022-10-06T00:34:44.744Z,3.53
2022-10-06T00:37:12.590Z,3.90
2022-10-06T00:39:40.424Z,3.70
2022-10-06T00:42:22.644Z,3.83
2022-10-06T00:44:50.425Z,3.95
2022-10-06T00:47:22.261Z,3.88
2022-10-06T00:49:50.451Z,3.70
2022-10-06T00:52:21.635Z,4.00
2022-10-06T00:54:49.460Z,4.40
2022-10-06T00:57:17.723Z,4.00
2022-10-06T00:59:45.736Z,4.10
2022-10-06T01:02:19.289Z,3.80
2022-10-06T01:04:55.652Z,3.42
2022-10-06T01:07:27.671Z,4.20
2022-10-06T01:09:56.764Z,4.03
2022-10-06T01:12:25.720Z,4.27
2022-10-06T01:14:56.830Z,3.88
2022-10-06T01:17:31.052Z,3.70
2022-10-06T01:20:04.060Z,3.13
2022-10-06T01:22:35.458Z,3.22
2022-10-06T01:25:03.480Z,3.85
2022-10-06T01:27:33.598Z,3.30
2022-10-06T01:30:02.374Z,3.38
2022-10-06T01:32:37.192Z,3.10
2022-10-06T01:35:09.464Z,3.35
2022-10-06T01:37:38.696Z,2.10
2022-10-06T01:40:07.341Z,2.03
2022-10-06T01:42:37.449Z,3.03
2022-10-06T01:45:06.484Z,3.00
2022-10-06T01:47:36.439Z,2.10
2022-10-06T01:50:05.472Z,3.20
2022-10-06T01:52:33.570Z,3.17
2022-10-06T01:55:02.891Z,2.88
2022-10-06T01:57:32.008Z,3.33
2022-10-06T01:59:59.749Z,3.40
2022-10-06T02:02:31.622Z,3.30
2022-10-06T02:04:59.680Z,3.10
2022-10-06T02:07:27.786Z,3.25
2022-10-06T02:09:55.624Z,3.15
2022-10-06T02:12:24.756Z,3.05
2022-10-06T02:14:52.507Z,2.90
2022-10-06T02:17:20.421Z,2.50
2022-10-06T02:19:48.310Z,2.40
2022-10-06T02:22:16.199Z,2.80
2022-10-06T02:24:44.034Z,3.17
2022-10-06T02:27:11.782Z,3.15
2022-10-06T02:29:40.870Z,3.28
2022-10-06T02:32:09.366Z,3.85
2022-10-06T02:34:37.266Z,4.00
2022-10-06T02:37:05.439Z,3.67
2022-10-06T02:39:33.398Z,3.78
2022-10-06T02:42:01.183Z,2.70
2022-10-06T02:44:28.939Z,3.20
2022-10-06T02:46:58.127Z,2.58
2022-10-06T02:49:26.126Z,3.00
2022-10-06T02:51:53.881Z,2.88
2022-10-06T02:54:22.972Z,3.70
2022-10-06T02:56:51.753Z,4.50
2022-10-06T02:59:22.047Z,4.50
2022-10-06T03:01:50.621Z,4.85
2022-10-06T03:04:20.812Z,3.80
2022-10-06T03:06:50.182Z,4.03
2022-10-06T03:09:20.612Z,3.88
2022-10-06T03:11:48.981Z,3.92
2022-10-06T03:14:37.038Z,4.60
2022-10-06T03:17:06.001Z,4.20
2022-10-06T03:19:35.159Z,3.40
2022-10-06T03:22:03.251Z,3.22
2022-10-06T03:24:41.183Z,2.60
2022-10-06T03:27:09.001Z,3.72
2022-10-06T03:29:36.870Z,3.72
2022-10-06T03:32:05.145Z,2.80
2022-10-06T03:34:35.165Z,2.80
2022-10-06T03:37:05.438Z,2.80
2022-10-06T03:39:34.238Z,2.87
2022-10-06T03:42:02.671Z,3.10
2022-10-06T03:44:32.253Z,2.73
2022-10-06T03:47:00.300Z,3.95
2022-10-06T03:49:28.240Z,3.55
2022-10-06T03:51:57.473Z,3.65
2022-10-06T03:54:29.065Z,3.17
2022-10-06T03:56:57.665Z,2.45
2022-10-06T03:59:25.456Z,3.30
2022-10-06T04:01:56.056Z,2.47
2022-10-06T04:04:36.733Z,3.60
2022-10-06T04:07:10.894Z,2.83
2022-10-06T04:09:39.520Z,3.87
2022-10-06T04:12:07.747Z,2.97
2022-10-06T04:14:38.170Z,3.13
2022-10-06T04:17:07.591Z,2.90
2022-10-06T04:19:37.586Z,3.10
2022-10-06T04:22:05.504Z,3.17
2022-10-06T04:24:35.817Z,3.92
2022-10-06T04:27:18.197Z,3.28
2022-10-06T04:29:52.441Z,3.47
2022-10-06T04:32:31.631Z,2.80
2022-10-06T04:34:59.423Z,3.00
2022-10-06T04:37:28.943Z,3.22
2022-10-06T04:39:58.863Z,2.83
2022-10-06T04:42:34.664Z,3.08
2022-10-06T04:45:04.686Z,4.10
2022-10-06T04:47:35.180Z,2.78
2022-10-06T04:50:03.006Z,2.70
2022-10-06T04:52:31.315Z,4.15
2022-10-06T04:55:00.523Z,3.92
2022-10-06T04:57:28.898Z,2.70
2022-10-06T05:00:15.194Z,3.33
2022-10-06T05:02:46.154Z,3.57
2022-10-06T05:05:14.110Z,4.10
2022-10-06T05:07:44.901Z,3.15
2022-10-06T05:10:14.360Z,2.80
2022-10-06T05:12:42.119Z,3.40
2022-10-06T05:15:11.044Z,3.22
2022-10-06T05:17:38.858Z,3.88
2022-10-06T05:20:10.864Z,3.63
2022-10-06T05:22:39.047Z,3.60
2022-10-06T05:25:07.572Z,4.05
2022-10-06T05:27:36.777Z,2.90
2022-10-06T05:30:05.124Z,3.90
2022-10-06T05:32:36.073Z,3.25
2022-10-06T05:35:05.296Z,4.20
2022-10-06T05:37:33.097Z,3.28
2022-10-06T05:40:00.912Z,4.22
2022-10-06T05:42:29.781Z,3.50
2022-10-06T05:45:00.029Z,3.47
2022-10-06T05:47:28.187Z,4.15
2022-10-06T05:49:56.018Z,2.95
2022-10-06T05:52:24.298Z,3.40
2022-10-06T05:54:52.573Z,3.17
2022-10-06T05:57:20.446Z,4.30
2022-10-06T05:59:48.213Z,3.00
2022-10-06T06:02:17.614Z,3.45
2022-10-06T06:04:45.659Z,3.70
2022-10-06T06:07:14.259Z,2.90
2022-10-06T06:09:44.044Z,3.23
2022-10-06T06:12:11.883Z,3.20
2022-10-06T06:15:28.457Z,2.80
2022-10-06T06:18:04.825Z,3.90
2022-10-06T06:20:33.054Z,5.82
2022-10-06T06:23:01.192Z,6.00
2022-10-06T06:25:29.818Z,5.60
2022-10-06T06:27:57.771Z,4.45
2022-10-06T06:30:26.296Z,5.47
2022-10-06T06:33:00.106Z,4.28
2022-10-06T06:35:30.105Z,4.38
2022-10-06T06:37:59.423Z,5.97
2022-10-06T06:40:28.061Z,6.32
2022-10-06T06:42:57.932Z,6.50
2022-10-06T06:45:38.829Z,6.33
2022-10-06T06:48:27.290Z,5.70
2022-10-06T06:50:59.924Z,5.50
2022-10-06T06:53:31.354Z,6.10
2022-10-06T06:56:01.879Z,6.40
2022-10-06T06:58:32.870Z,6.03
2022-10-06T07:01:08.935Z,6.18
2022-10-06T07:06:29.260Z,6.68
2022-10-06T07:09:00.681Z,5.82
2022-10-06T07:11:30.979Z,4.97
2022-10-06T07:14:02.518Z,4.20
2022-10-06T07:16:49.816Z,3.17
2022-10-06T07:19:36.048Z,3.00
2022-10-06T07:22:32.647Z,2.90
2022-10-06T07:25:08.371Z,2.78
2022-10-06T07:27:44.345Z,2.75
2022-10-06T07:30:19.318Z,2.72
2022-10-06T07:32:51.601Z,2.57
2022-10-06T07:35:21.643Z,2.97
2022-10-06T07:37:53.287Z,2.67
2022-10-06T07:40:24.020Z,2.53
2022-10-06T07:42:52.837Z,2.50
2022-10-06T07:45:41.207Z,1.70
2022-10-06T07:48:15.272Z,2.42
2022-10-06T07:50:45.672Z,2.20
2022-10-06T07:53:15.164Z,1.90
2022-10-06T07:55:49.647Z,2.50
2022-10-06T07:58:25.463Z,1.90
2022-10-06T08:00:53.742Z,2.20
2022-10-06T08:03:22.318Z,2.30
2022-10-06T08:05:57.786Z,1.70
2022-10-06T08:08:27.712Z,1.80
2022-10-06T08:11:00.284Z,1.60
2022-10-06T08:13:33.047Z,2.10
2022-10-06T08:16:05.972Z,1.80
2022-10-06T08:18:45.869Z,1.58
2022-10-06T08:21:16.805Z,1.73
2022-10-06T08:23:47.397Z,2.30
2022-10-06T08:26:17.002Z,2.00
2022-10-06T08:28:46.686Z,2.03
2022-10-06T08:31:15.901Z,2.00
2022-10-06T08:33:44.828Z,1.98
2022-10-06T08:36:15.196Z,1.80
2022-10-06T08:38:43.554Z,1.90
2022-10-06T08:41:25.623Z,1.98
2022-10-06T08:44:01.545Z,1.77
2022-10-06T08:46:35.903Z,1.98
2022-10-06T08:49:04.018Z,1.98
2022-10-06T08:51:50.427Z,2.20
2022-10-06T08:54:29.845Z,2.30
2022-10-06T08:57:06.790Z,2.50
2022-10-06T08:59:36.183Z,2.45
2022-10-06T09:02:05.712Z,2.40
2022-10-06T09:04:34.344Z,2.13
2022-10-06T09:07:09.233Z,2.50
2022-10-06T09:09:56.609Z,2.63
2022-10-06T09:12:33.750Z,1.98
2022-10-06T09:15:13.368Z,2.30
2022-10-06T09:17:46.691Z,1.70
2022-10-06T09:20:20.659Z,1.90
2022-10-06T09:22:50.908Z,1.70
2022-10-06T09:25:26.609Z,1.70
2022-10-06T09:27:57.320Z,1.63
2022-10-06T09:30:25.727Z,1.98
2022-10-06T09:32:59.196Z,1.60
2022-10-06T09:35:28.867Z,1.80
2022-10-06T09:37:58.633Z,1.48
2022-10-06T09:40:38.409Z,1.53
2022-10-06T09:43:25.651Z,1.50
2022-10-06T09:45:54.718Z,1.40
2022-10-06T09:48:25.116Z,1.80
2022-10-06T09:51:13.502Z,1.55
2022-10-06T09:53:44.341Z,2.13
2022-10-06T09:56:18.720Z,2.00
2022-10-06T09:58:58.784Z,1.60
2022-10-06T10:01:29.204Z,1.50
2022-10-06T10:04:19.608Z,1.83
2022-10-06T10:06:48.316Z,1.50
2022-10-06T10:09:33.720Z,1.50
2022-10-06T10:12:31.049Z,1.40
2022-10-06T10:15:04.141Z,1.38
2022-10-06T10:17:48.933Z,1.48
2022-10-06T10:20:29.634Z,1.40
2022-10-06T10:22:59.440Z,1.60
2022-10-06T10:25:41.406Z,1.40
2022-10-06T10:28:22.358Z,1.35
2022-10-06T10:31:00.244Z,1.50
2022-10-06T10:33:36.215Z,1.63
2022-10-06T10:36:07.677Z,1.77
2022-10-06T10:38:40.978Z,1.55
2022-10-06T10:41:15.737Z,1.38
2022-10-06T10:43:49.846Z,1.40
2022-10-06T10:46:24.823Z,1.58
2022-10-06T10:48:58.373Z,1.40
2022-10-06T10:51:32.915Z,1.60
2022-10-06T10:54:05.977Z,1.70
2022-10-06T10:56:34.811Z,1.50
2022-10-06T10:59:12.452Z,1.50
2022-10-06T11:01:49.019Z,1.40
2022-10-06T11:04:17.108Z,1.15
2022-10-06T11:07:08.750Z,1.90
2022-10-06T11:09:45.732Z,1.88
2022-10-06T11:12:26.628Z,1.60
2022-10-06T11:15:01.751Z,1.30
2022-10-06T11:17:45.158Z,1.63
2022-10-06T11:20:33.011Z,1.40
2022-10-06T11:23:22.934Z,1.40
2022-10-06T11:26:01.968Z,1.40
2022-10-06T11:28:35.133Z,1.37
2022-10-06T11:31:10.673Z,1.10
2022-10-06T11:33:48.024Z,1.40
2022-10-06T11:36:26.646Z,1.48
2022-10-06T11:38:59.437Z,1.25
2022-10-06T11:41:31.973Z,1.40
2022-10-06T11:44:06.617Z,1.42
2022-10-06T11:46:42.642Z,1.37
2022-10-06T11:49:48.182Z,1.43
2022-10-06T11:52:55.833Z,1.48
2022-10-06T11:55:26.545Z,1.42
2022-10-06T11:58:29.947Z,1.60
2022-10-06T12:00:55.840Z,1.40
2022-10-06T12:03:48.166Z,1.35
2022-10-06T12:06:58.487Z,1.45
2022-10-06T12:09:52.373Z,1.67
2022-10-06T12:13:06.881Z,1.50
2022-10-06T12:18:46.278Z,1.70
2022-10-06T12:21:34.028Z,1.30
2022-10-06T12:24:07.686Z,1.70
2022-10-06T12:26:47.014Z,2.80
2022-10-06T12:29:30.845Z,1.55
2022-10-06T12:32:13.008Z,1.47
2022-10-06T12:34:51.663Z,1.55
2022-10-06T12:37:40.755Z,1.40
2022-10-06T12:40:47.789Z,1.30
2022-10-06T12:43:41.829Z,1.23
2022-10-06T12:46:17.521Z,1.50
2022-10-06T12:48:57.040Z,2.05
2022-10-06T12:54:13.225Z,1.20
2022-10-06T12:56:42.832Z,1.27
2022-10-06T12:59:27.243Z,1.25
2022-10-06T13:01:58.260Z,1.60
2022-10-06T13:04:40.474Z,1.50
2022-10-06T13:07:17.202Z,1.55
2022-10-06T13:09:45.946Z,1.60
2022-10-06T13:12:26.239Z,1.60
2022-10-06T13:15:17.301Z,1.77
2022-10-06T13:17:49.402Z,1.27
2022-10-06T13:20:23.743Z,1.50
2022-10-06T13:23:02.879Z,1.42
2022-10-06T13:25:36.466Z,1.70
2022-10-06T13:28:04.362Z,1.60
2022-10-06T13:30:38.421Z,1.70
2022-10-06T13:33:08.667Z,1.40
2022-10-06T13:35:36.435Z,1.50
2022-10-06T13:38:06.270Z,1.52
2022-10-06T13:40:49.805Z,1.60
2022-10-06T13:43:20.224Z,1.90
2022-10-06T13:45:49.627Z,1.50
2022-10-06T13:48:21.205Z,1.50
2022-10-06T13:50:50.349Z,1.70
2022-10-06T13:53:31.085Z,1.40
2022-10-06T13:55:59.886Z,1.50
2022-10-06T13:58:31.193Z,1.52
2022-10-06T14:01:01.887Z,1.42
2022-10-06T14:06:10.122Z,1.40
2022-10-06T14:08:39.138Z,1.53
2022-10-06T14:11:09.274Z,1.73
2022-10-06T14:13:46.976Z,1.67
2022-10-06T14:16:22.669Z,1.10
2022-10-06T14:18:58.415Z,1.70
2022-10-06T14:21:35.567Z,1.38
2022-10-06T14:24:07.535Z,1.30
2022-10-06T14:26:38.378Z,1.35
2022-10-06T14:29:06.267Z,1.50
2022-10-06T14:31:38.063Z,1.30
2022-10-06T14:34:06.052Z,1.50
2022-10-06T14:36:35.446Z,1.23
2022-10-06T14:39:05.827Z,1.35
2022-10-06T14:41:34.050Z,1.60
2022-10-06T14:44:06.994Z,1.50
2022-10-06T14:46:34.911Z,1.48
2022-10-06T14:49:07.511Z,1.40
2022-10-06T14:51:37.097Z,1.75
2022-10-06T14:54:07.490Z,1.13
2022-10-06T14:56:37.796Z,1.40
2022-10-06T14:59:12.088Z,1.33
2022-10-06T15:01:40.860Z,1.30
2022-10-06T15:04:13.288Z,1.63
2022-10-06T15:06:59.445Z,1.30
2022-10-06T15:09:30.604Z,1.20
2022-10-06T15:11:59.388Z,1.60
2022-10-06T15:14:29.591Z,1.25
2022-10-06T15:16:59.200Z,1.35
2022-10-06T15:19:28.514Z,0.95
2022-10-06T15:21:56.315Z,1.40
2022-10-06T15:24:24.256Z,1.40
2022-10-06T15:27:09.550Z,1.50
2022-10-06T15:29:37.865Z,1.52
2022-10-06T15:32:07.190Z,1.15
2022-10-06T15:34:37.597Z,1.70
2022-10-06T15:37:06.272Z,1.50
2022-10-06T15:39:37.756Z,1.20
2022-10-06T15:42:06.445Z,1.17
2022-10-06T15:44:34.960Z,1.40
2022-10-06T15:47:05.330Z,1.37
2022-10-06T15:49:38.009Z,1.60
2022-10-06T15:52:07.827Z,1.30
2022-10-06T15:54:38.342Z,1.20
2022-10-06T15:57:08.484Z,1.20
2022-10-06T15:59:36.447Z,1.30
2022-10-06T16:02:07.493Z,1.63
2022-10-06T16:04:48.809Z,1.63
2022-10-06T16:07:20.008Z,1.30
2022-10-06T16:09:49.513Z,1.70
2022-10-06T16:12:19.509Z,1.45
2022-10-06T16:14:47.667Z,1.00
2022-10-06T16:17:16.368Z,2.00
2022-10-06T16:19:44.459Z,1.80
2022-10-06T16:22:14.029Z,2.10
2022-10-06T16:24:43.520Z,7.45
2022-10-06T16:27:12.853Z,2.40
2022-10-06T16:29:40.763Z,1.75
2022-10-06T16:32:09.040Z,1.50
2022-10-06T16:34:36.861Z,1.70
2022-10-06T16:37:04.941Z,1.48
2022-10-06T16:39:32.850Z,1.60
2022-10-06T16:42:01.989Z,2.10
2022-10-06T16:44:29.867Z,1.37
2022-10-06T16:46:57.831Z,1.70
2022-10-06T16:49:27.259Z,1.42
2022-10-06T16:51:55.122Z,1.83
2022-10-06T16:54:22.933Z,1.70
2022-10-06T16:56:54.266Z,1.80
2022-10-06T16:59:25.904Z,1.52
2022-10-06T17:01:54.097Z,2.17
2022-10-06T17:04:23.808Z,1.80
2022-10-06T17:06:53.473Z,2.13
2022-10-06T17:09:22.600Z,2.35
2022-10-06T17:11:51.732Z,1.50
2022-10-06T17:14:23.779Z,2.30
2022-10-06T17:16:54.054Z,2.17
2022-10-06T17:19:26.216Z,2.47
2022-10-06T17:21:58.659Z,2.25
2022-10-06T17:24:28.423Z,2.10
2022-10-06T17:26:57.914Z,2.03
2022-10-06T17:29:27.536Z,2.77
2022-10-06T17:31:59.478Z,2.33
2022-10-06T17:34:32.283Z,2.70
2022-10-06T17:37:00.875Z,3.10
2022-10-06T17:39:28.684Z,2.75
2022-10-06T17:41:57.190Z,1.80
2022-10-06T17:44:28.499Z,1.65
2022-10-06T17:46:58.353Z,2.10
2022-10-06T17:49:27.950Z,2.20
2022-10-06T17:51:57.767Z,2.40
2022-10-06T17:54:27.222Z,3.93
2022-10-06T17:56:57.901Z,3.88
2022-10-06T17:59:30.195Z,3.20
2022-10-06T18:01:59.904Z,3.00
2022-10-06T18:04:28.803Z,2.20
2022-10-06T18:06:57.348Z,1.85
2022-10-06T18:09:25.953Z,1.90
2022-10-06T18:11:56.334Z,3.00
2022-10-06T18:14:25.965Z,3.28
2022-10-06T18:16:57.630Z,3.03
2022-10-06T18:19:29.777Z,3.50
2022-10-06T18:21:59.462Z,5.80
2022-10-06T18:24:29.068Z,6.70
2022-10-06T18:26:58.475Z,6.85
2022-10-06T18:29:29.868Z,5.65
2022-10-06T18:32:21.341Z,5.18
2022-10-06T18:37:35.108Z,4.85
2022-10-06T18:40:06.152Z,3.13
2022-10-06T18:42:34.617Z,4.60
2022-10-06T18:45:20.040Z,4.80
2022-10-06T18:48:06.571Z,5.23
2022-10-06T18:50:35.204Z,5.47
2022-10-06T18:53:04.384Z,4.80
2022-10-06T18:55:32.396Z,6.30
2022-10-06T18:58:00.183Z,8.70
2022-10-06T19:00:27.997Z,5.50
2022-10-06T19:02:57.164Z,4.80
2022-10-06T19:05:25.378Z,4.40
2022-10-06T19:07:54.644Z,4.10
2022-10-06T19:10:22.766Z,5.13
2022-10-06T19:12:50.550Z,6.80
2022-10-06T19:15:21.161Z,6.30
2022-10-06T19:17:49.466Z,6.33
2022-10-06T19:20:19.222Z,4.73
2022-10-06T19:22:47.947Z,4.60
2022-10-06T19:25:19.211Z,3.80
2022-10-06T19:27:50.182Z,3.17
2022-10-06T19:30:18.378Z,3.45
2022-10-06T19:32:46.139Z,3.38
2022-10-06T19:35:13.968Z,3.40
2022-10-06T19:37:45.966Z,2.43
2022-10-06T19:40:14.026Z,2.47
2022-10-06T19:42:50.881Z,3.03
2022-10-06T19:45:20.660Z,3.80
2022-10-06T19:47:48.578Z,3.10
2022-10-06T19:50:17.611Z,2.80
2022-10-06T19:52:46.749Z,4.17
2022-10-06T19:55:14.867Z,3.97
2022-10-06T19:57:43.219Z,3.53
2022-10-06T20:00:12.722Z,3.58
2022-10-06T20:02:42.734Z,3.53
2022-10-06T20:05:12.016Z,3.17
2022-10-06T20:07:40.379Z,3.40
2022-10-06T20:10:11.687Z,4.03
2022-10-06T20:12:41.296Z,4.35
2022-10-06T20:15:09.780Z,4.25
2022-10-06T20:17:37.778Z,4.63
2022-10-06T20:20:06.484Z,3.67
2022-10-06T20:22:34.431Z,4.93
2022-10-06T20:25:02.532Z,5.03
2022-10-06T20:27:33.948Z,4.35
2022-10-06T20:30:01.765Z,4.40
2022-10-06T20:32:29.535Z,4.13
2022-10-06T20:34:58.012Z,4.97
2022-10-06T20:37:25.843Z,4.35
2022-10-06T20:40:11.239Z,4.45
2022-10-06T20:42:44.725Z,3.70
2022-10-06T20:45:12.580Z,3.00
2022-10-06T20:47:40.420Z,2.70
2022-10-06T20:50:09.218Z,3.50
2022-10-06T20:52:39.589Z,3.75
2022-10-06T20:55:08.761Z,3.70
2022-10-06T20:57:36.878Z,3.17
2022-10-06T21:00:07.283Z,3.58
2022-10-06T21:02:35.405Z,3.13
2022-10-06T21:05:03.284Z,3.33
2022-10-06T21:07:31.200Z,3.73
2022-10-06T21:09:59.016Z,3.57
2022-10-06T21:12:27.223Z,3.20
2022-10-06T21:14:56.920Z,2.80
2022-10-06T21:17:26.206Z,3.90
2022-10-06T21:19:54.056Z,4.05
2022-10-06T21:22:21.836Z,3.75
2022-10-06T21:24:49.675Z,4.13
2022-10-06T21:27:18.301Z,3.53
2022-10-06T21:29:46.200Z,2.60
2022-10-06T21:32:14.094Z,3.53
2022-10-06T21:34:43.331Z,3.90
2022-10-06T21:37:13.561Z,4.03
2022-10-06T21:39:42.089Z,3.40
2022-10-06T21:42:09.989Z,2.83
2022-10-06T21:44:37.918Z,2.50
2022-10-06T21:47:06.036Z,2.30
2022-10-06T21:49:33.850Z,3.28
2022-10-06T21:52:05.279Z,2.80
2022-10-06T21:54:33.117Z,2.60
2022-10-06T21:57:01.073Z,2.30
2022-10-06T21:59:28.901Z,3.33
2022-10-06T22:01:56.819Z,3.88
2022-10-06T22:04:24.795Z,4.00
2022-10-06T22:06:52.602Z,3.83
2022-10-06T22:09:22.209Z,3.28
2022-10-06T22:11:50.488Z,3.28
2022-10-06T22:14:20.075Z,2.28
2022-10-06T22:16:48.209Z,2.60
2022-10-06T22:19:17.886Z,3.70
2022-10-06T22:21:47.389Z,3.40
2022-10-06T22:24:17.245Z,3.90
2022-10-06T22:26:46.832Z,3.78
2022-10-06T22:29:16.102Z,3.63
2022-10-06T22:31:45.820Z,2.70
2022-10-06T22:34:15.430Z,4.05
2022-10-06T22:36:43.441Z,4.22
2022-10-06T22:39:11.342Z,2.88
2022-10-06T22:41:39.859Z,2.70
2022-10-06T22:44:09.187Z,3.70
2022-10-06T22:46:38.174Z,4.35
2022-10-06T22:49:06.803Z,3.75
2022-10-06T22:51:34.956Z,3.25
2022-10-06T22:54:03.086Z,2.97
2022-10-06T22:56:33.242Z,3.30
2022-10-06T22:59:01.503Z,3.97
2022-10-06T23:01:31.441Z,3.80
2022-10-06T23:03:59.549Z,3.33
2022-10-06T23:06:29.674Z,3.45
2022-10-06T23:08:57.749Z,3.90
2022-10-06T23:11:25.621Z,4.05
2022-10-06T23:13:53.615Z,3.53
2022-10-06T23:16:22.102Z,3.63
2022-10-06T23:18:51.472Z,3.60
2022-10-06T23:21:22.456Z,3.50
2022-10-06T23:23:52.036Z,3.60
2022-10-06T23:26:20.546Z,3.53
2022-10-06T23:28:52.817Z,3.50
2022-10-06T23:31:20.728Z,3.65
2022-10-06T23:33:49.191Z,3.93
2022-10-06T23:36:19.247Z,4.07
2022-10-06T23:38:47.738Z,4.30
2022-10-06T23:41:16.071Z,4.13
2022-10-06T23:43:43.945Z,3.90
2022-10-06T23:46:12.327Z,3.50
2022-10-06T23:48:40.273Z,2.88
2022-10-06T23:51:13.388Z,3.10
2022-10-06T23:53:43.119Z,3.83
2022-10-06T23:56:12.065Z,3.55
2022-10-06T23:58:41.631Z,3.50
